sensor_id;sensor_type;location;lat;lon;timestamp;P1;durP1;ratioP1;P2;durP2;ratioP2
10701;SDS011;5402;50.004;8.246;2023-02-01T00:02:24;6.07;;;4.17;;
10701;SDS011;5402;50.004;8.246;2023-02-01T00:04:51;4.53;;;3.50;;
10701;SDS011;5402;50.004;8.246;2023-02-01T00:07:18;5.27;;;3.87;;
10701;SDS011;5402;50.004;8.246;2023-02-01T00:09:46;5.97;;;4.00;;
10701;SDS011;5402;50.004;8.246;2023-02-01T00:12:12;7.53;;;4.60;;
10701;SDS011;5402;50.004;8.246;2023-02-01T00:14:39;9.53;;;4.97;;
10701;SDS011;5402;50.004;8.246;2023-02-01T00:17:06;9.70;;;4.63;;
10701;SDS011;5402;50.004;8.246;2023-02-01T00:19:33;7.83;;;4.43;;
10701;SDS011;5402;50.004;8.246;2023-02-01T00:22:00;9.27;;;5.23;;
10701;SDS011;5402;50.004;8.246;2023-02-01T00:24:27;7.07;;;4.97;;
10701;SDS011;5402;50.004;8.246;2023-02-01T00:26:55;8.13;;;4.93;;
10701;SDS011;5402;50.004;8.246;2023-02-01T00:29:22;6.70;;;4.90;;
10701;SDS011;5402;50.004;8.246;2023-02-01T00:31:49;9.43;;;5.53;;
10701;SDS011;5402;50.004;8.246;2023-02-01T00:34:17;6.90;;;5.30;;
10701;SDS011;5402;50.004;8.246;2023-02-01T00:36:44;8.87;;;5.93;;
10701;SDS011;5402;50.004;8.246;2023-02-01T00:39:11;9.03;;;5.80;;
10701;SDS011;5402;50.004;8.246;2023-02-01T00:41:38;9.53;;;5.47;;
10701;SDS011;5402;50.004;8.246;2023-02-01T00:44:07;8.00;;;5.90;;
10701;SDS011;5402;50.004;8.246;2023-02-01T00:46:34;9.10;;;5.60;;
10701;SDS011;5402;50.004;8.246;2023-02-01T00:49:01;10.23;;;6.13;;
10701;SDS011;5402;50.004;8.246;2023-02-01T00:51:28;9.80;;;6.63;;
10701;SDS011;5402;50.004;8.246;2023-02-01T00:53:55;11.23;;;5.57;;
10701;SDS011;5402;50.004;8.246;2023-02-01T00:56:23;12.03;;;6.20;;
10701;SDS011;5402;50.004;8.246;2023-02-01T00:58:49;10.43;;;6.03;;
10701;SDS011;5402;50.004;8.246;2023-02-01T01:01:19;8.67;;;6.03;;
10701;SDS011;5402;50.004;8.246;2023-02-01T01:03:47;10.47;;;6.23;;
10701;SDS011;5402;50.004;8.246;2023-02-01T01:06:16;8.67;;;6.03;;
10701;SDS011;5402;50.004;8.246;2023-02-01T01:08:44;9.43;;;5.83;;
10701;SDS011;5402;50.004;8.246;2023-02-01T01:11:11;9.23;;;6.37;;
10701;SDS011;5402;50.004;8.246;2023-02-01T01:13:40;10.40;;;6.00;;
10701;SDS011;5402;50.004;8.246;2023-02-01T01:16:08;8.90;;;5.90;;
10701;SDS011;5402;50.004;8.246;2023-02-01T01:18:38;8.63;;;6.00;;
10701;SDS011;5402;50.004;8.246;2023-02-01T01:21:05;8.27;;;5.73;;
10701;SDS011;5402;50.004;8.246;2023-02-01T01:23:35;8.93;;;5.87;;
10701;SDS011;5402;50.004;8.246;2023-02-01T01:26:04;9.67;;;5.47;;
10701;SDS011;5402;50.004;8.246;2023-02-01T01:28:32;9.73;;;6.10;;
10701;SDS011;5402;50.004;8.246;2023-02-01T01:30:58;8.37;;;5.33;;
10701;SDS011;5402;50.004;8.246;2023-02-01T01:33:25;9.37;;;6.00;;
10701;SDS011;5402;50.004;8.246;2023-02-01T01:35:53;7.93;;;5.53;;
10701;SDS011;5402;50.004;8.246;2023-02-01T01:38:20;10.07;;;5.50;;
10701;SDS011;5402;50.004;8.246;2023-02-01T01:40:47;8.53;;;5.43;;
10701;SDS011;5402;50.004;8.246;2023-02-01T01:43:16;7.83;;;5.37;;
10701;SDS011;5402;50.004;8.246;2023-02-01T01:45:47;9.40;;;5.77;;
10701;SDS011;5402;50.004;8.246;2023-02-01T01:48:18;12.03;;;5.87;;
10701;SDS011;5402;50.004;8.246;2023-02-01T01:50:50;8.27;;;6.07;;
10701;SDS011;5402;50.004;8.246;2023-02-01T01:53:23;16.27;;;6.60;;
10701;SDS011;5402;50.004;8.246;2023-02-01T01:55:57;8.20;;;5.87;;
10701;SDS011;5402;50.004;8.246;2023-02-01T01:58:25;9.07;;;6.27;;
10701;SDS011;5402;50.004;8.246;2023-02-01T02:00:53;11.20;;;6.10;;
10701;SDS011;5402;50.004;8.246;2023-02-01T02:03:21;10.43;;;6.03;;
10701;SDS011;5402;50.004;8.246;2023-02-01T02:05:52;10.70;;;5.90;;
10701;SDS011;5402;50.004;8.246;2023-02-01T02:08:21;10.00;;;5.70;;
10701;SDS011;5402;50.004;8.246;2023-02-01T02:10:52;13.70;;;5.90;;
10701;SDS011;5402;50.004;8.246;2023-02-01T02:13:26;9.77;;;5.20;;
10701;SDS011;5402;50.004;8.246;2023-02-01T02:15:59;9.87;;;6.10;;
10701;SDS011;5402;50.004;8.246;2023-02-01T02:18:44;10.60;;;6.13;;
10701;SDS011;5402;50.004;8.246;2023-02-01T02:21:25;10.23;;;6.43;;
10701;SDS011;5402;50.004;8.246;2023-02-01T02:24:32;10.20;;;5.97;;
10701;SDS011;5402;50.004;8.246;2023-02-01T02:27:23;7.20;;;5.27;;
10701;SDS011;5402;50.004;8.246;2023-02-01T02:36:10;0.00;;;0.00;;
10701;SDS011;5402;50.004;8.246;2023-02-01T02:38:45;0.00;;;0.00;;
10701;SDS011;5402;50.004;8.246;2023-02-01T02:41:18;0.00;;;0.00;;
10701;SDS011;5402;50.004;8.246;2023-02-01T02:44:11;0.00;;;0.00;;
10701;SDS011;5402;50.004;8.246;2023-02-01T02:47:02;0.00;;;0.00;;
10701;SDS011;5402;50.004;8.246;2023-02-01T02:49:51;0.00;;;0.00;;
10701;SDS011;5402;50.004;8.246;2023-02-01T02:52:42;0.00;;;0.00;;
10701;SDS011;5402;50.004;8.246;2023-02-01T02:55:29;0.00;;;0.00;;
10701;SDS011;5402;50.004;8.246;2023-02-01T02:58:00;0.00;;;0.00;;
10701;SDS011;5402;50.004;8.246;2023-02-01T03:00:48;0.00;;;0.00;;
10701;SDS011;5402;50.004;8.246;2023-02-01T03:03:35;0.00;;;0.00;;
10701;SDS011;5402;50.004;8.246;2023-02-01T03:06:21;0.00;;;0.00;;
10701;SDS011;5402;50.004;8.246;2023-02-01T03:08:51;0.00;;;0.00;;
10701;SDS011;5402;50.004;8.246;2023-02-01T03:11:22;0.00;;;0.00;;
10701;SDS011;5402;50.004;8.246;2023-02-01T03:14:09;0.00;;;0.00;;
10701;SDS011;5402;50.004;8.246;2023-02-01T03:16:40;0.00;;;0.00;;
10701;SDS011;5402;50.004;8.246;2023-02-01T03:19:11;0.00;;;0.00;;
10701;SDS011;5402;50.004;8.246;2023-02-01T03:21:45;0.00;;;0.00;;
10701;SDS011;5402;50.004;8.246;2023-02-01T03:24:16;0.00;;;0.00;;
10701;SDS011;5402;50.004;8.246;2023-02-01T03:26:47;0.00;;;0.00;;
10701;SDS011;5402;50.004;8.246;2023-02-01T03:29:18;0.00;;;0.00;;
10701;SDS011;5402;50.004;8.246;2023-02-01T03:31:53;0.00;;;0.00;;
10701;SDS011;5402;50.004;8.246;2023-02-01T03:34:19;0.00;;;0.00;;
10701;SDS011;5402;50.004;8.246;2023-02-01T03:36:47;1.50;;;1.40;;
10701;SDS011;5402;50.004;8.246;2023-02-01T03:39:19;0.00;;;0.00;;
10701;SDS011;5402;50.004;8.246;2023-02-01T03:41:51;0.00;;;0.00;;
10701;SDS011;5402;50.004;8.246;2023-02-01T03:44:22;0.00;;;0.00;;
10701;SDS011;5402;50.004;8.246;2023-02-01T03:46:51;0.00;;;0.00;;
10701;SDS011;5402;50.004;8.246;2023-02-01T03:49:22;0.00;;;0.00;;
10701;SDS011;5402;50.004;8.246;2023-02-01T03:51:52;0.00;;;0.00;;
10701;SDS011;5402;50.004;8.246;2023-02-01T03:54:21;0.00;;;0.00;;
10701;SDS011;5402;50.004;8.246;2023-02-01T03:56:48;0.00;;;0.00;;
10701;SDS011;5402;50.004;8.246;2023-02-01T03:59:17;0.00;;;0.00;;
10701;SDS011;5402;50.004;8.246;2023-02-01T04:01:44;0.00;;;0.00;;
10701;SDS011;5402;50.004;8.246;2023-02-01T04:04:11;0.00;;;0.00;;
10701;SDS011;5402;50.004;8.246;2023-02-01T04:06:44;0.00;;;0.00;;
10701;SDS011;5402;50.004;8.246;2023-02-01T04:09:11;0.00;;;0.00;;
10701;SDS011;5402;50.004;8.246;2023-02-01T04:11:39;0.00;;;0.00;;
10701;SDS011;5402;50.004;8.246;2023-02-01T04:14:06;0.00;;;0.00;;
10701;SDS011;5402;50.004;8.246;2023-02-01T04:16:33;0.00;;;0.00;;
10701;SDS011;5402;50.004;8.246;2023-02-01T04:19:00;0.00;;;0.00;;
10701;SDS011;5402;50.004;8.246;2023-02-01T04:21:27;0.00;;;0.00;;
10701;SDS011;5402;50.004;8.246;2023-02-01T04:23:54;0.00;;;0.00;;
10701;SDS011;5402;50.004;8.246;2023-02-01T04:26:21;0.00;;;0.00;;
10701;SDS011;5402;50.004;8.246;2023-02-01T04:28:49;0.00;;;0.00;;
10701;SDS011;5402;50.004;8.246;2023-02-01T04:31:16;0.00;;;0.00;;
10701;SDS011;5402;50.004;8.246;2023-02-01T04:33:50;0.00;;;0.00;;
10701;SDS011;5402;50.004;8.246;2023-02-01T04:36:17;0.00;;;0.00;;
10701;SDS011;5402;50.004;8.246;2023-02-01T04:38:44;0.00;;;0.00;;
10701;SDS011;5402;50.004;8.246;2023-02-01T04:41:12;0.00;;;0.00;;
10701;SDS011;5402;50.004;8.246;2023-02-01T04:43:38;0.00;;;0.00;;
10701;SDS011;5402;50.004;8.246;2023-02-01T04:46:06;0.00;;;0.00;;
10701;SDS011;5402;50.004;8.246;2023-02-01T04:48:33;0.00;;;0.00;;
10701;SDS011;5402;50.004;8.246;2023-02-01T04:51:00;0.00;;;0.00;;
10701;SDS011;5402;50.004;8.246;2023-02-01T04:53:27;0.00;;;0.00;;
10701;SDS011;5402;50.004;8.246;2023-02-01T04:55:54;0.00;;;0.00;;
10701;SDS011;5402;50.004;8.246;2023-02-01T04:58:21;0.00;;;0.00;;
10701;SDS011;5402;50.004;8.246;2023-02-01T05:00:48;0.00;;;0.00;;
10701;SDS011;5402;50.004;8.246;2023-02-01T05:03:18;0.00;;;0.00;;
10701;SDS011;5402;50.004;8.246;2023-02-01T05:05:46;0.00;;;0.00;;
10701;SDS011;5402;50.004;8.246;2023-02-01T05:08:13;0.00;;;0.00;;
10701;SDS011;5402;50.004;8.246;2023-02-01T05:10:41;0.00;;;0.00;;
10701;SDS011;5402;50.004;8.246;2023-02-01T05:13:08;0.00;;;0.00;;
10701;SDS011;5402;50.004;8.246;2023-02-01T05:15:53;0.00;;;0.00;;
10701;SDS011;5402;50.004;8.246;2023-02-01T05:18:21;0.00;;;0.00;;
10701;SDS011;5402;50.004;8.246;2023-02-01T05:20:48;1.27;;;1.00;;
10701;SDS011;5402;50.004;8.246;2023-02-01T05:23:14;1.73;;;1.10;;
10701;SDS011;5402;50.004;8.246;2023-02-01T05:25:41;1.77;;;1.67;;
10701;SDS011;5402;50.004;8.246;2023-02-01T05:28:08;2.83;;;1.57;;
10701;SDS011;5402;50.004;8.246;2023-02-01T05:30:35;2.77;;;1.60;;
10701;SDS011;5402;50.004;8.246;2023-02-01T05:33:01;2.53;;;1.80;;
10701;SDS011;5402;50.004;8.246;2023-02-01T05:35:30;8.10;;;1.87;;
10701;SDS011;5402;50.004;8.246;2023-02-01T05:37:57;4.00;;;1.97;;
10701;SDS011;5402;50.004;8.246;2023-02-01T05:40:24;5.23;;;1.50;;
10701;SDS011;5402;50.004;8.246;2023-02-01T05:42:50;2.63;;;1.70;;
10701;SDS011;5402;50.004;8.246;2023-02-01T05:45:17;6.33;;;1.90;;
10701;SDS011;5402;50.004;8.246;2023-02-01T05:47:44;3.80;;;1.77;;
10701;SDS011;5402;50.004;8.246;2023-02-01T05:50:10;2.37;;;1.57;;
10701;SDS011;5402;50.004;8.246;2023-02-01T05:52:38;2.67;;;1.60;;
10701;SDS011;5402;50.004;8.246;2023-02-01T05:55:05;5.83;;;2.07;;
10701;SDS011;5402;50.004;8.246;2023-02-01T05:57:32;3.60;;;1.70;;
10701;SDS011;5402;50.004;8.246;2023-02-01T05:59:59;3.67;;;1.63;;
10701;SDS011;5402;50.004;8.246;2023-02-01T06:02:26;1.53;;;1.37;;
10701;SDS011;5402;50.004;8.246;2023-02-01T06:04:53;2.27;;;1.80;;
10701;SDS011;5402;50.004;8.246;2023-02-01T06:07:19;4.00;;;2.10;;
10701;SDS011;5402;50.004;8.246;2023-02-01T06:09:48;1.73;;;1.63;;
10701;SDS011;5402;50.004;8.246;2023-02-01T06:12:15;6.00;;;2.07;;
10701;SDS011;5402;50.004;8.246;2023-02-01T06:14:41;5.90;;;1.50;;
10701;SDS011;5402;50.004;8.246;2023-02-01T06:17:08;3.57;;;1.47;;
10701;SDS011;5402;50.004;8.246;2023-02-01T06:19:35;5.67;;;2.10;;
10701;SDS011;5402;50.004;8.246;2023-02-01T06:22:01;5.90;;;2.50;;
10701;SDS011;5402;50.004;8.246;2023-02-01T06:24:31;3.30;;;2.17;;
10701;SDS011;5402;50.004;8.246;2023-02-01T06:26:59;2.30;;;1.60;;
10701;SDS011;5402;50.004;8.246;2023-02-01T06:29:26;3.17;;;1.40;;
10701;SDS011;5402;50.004;8.246;2023-02-01T06:31:52;7.77;;;2.20;;
10701;SDS011;5402;50.004;8.246;2023-02-01T06:34:19;3.37;;;2.03;;
10701;SDS011;5402;50.004;8.246;2023-02-01T06:36:47;4.60;;;2.07;;
10701;SDS011;5402;50.004;8.246;2023-02-01T06:39:14;4.63;;;1.70;;
10701;SDS011;5402;50.004;8.246;2023-02-01T06:41:41;6.80;;;2.03;;
10701;SDS011;5402;50.004;8.246;2023-02-01T06:44:10;2.70;;;1.90;;
10701;SDS011;5402;50.004;8.246;2023-02-01T06:46:37;7.27;;;2.27;;
10701;SDS011;5402;50.004;8.246;2023-02-01T06:49:04;4.00;;;2.43;;
10701;SDS011;5402;50.004;8.246;2023-02-01T06:51:31;4.33;;;1.70;;
10701;SDS011;5402;50.004;8.246;2023-02-01T06:53:57;3.80;;;1.57;;
10701;SDS011;5402;50.004;8.246;2023-02-01T06:56:24;5.90;;;1.90;;
10701;SDS011;5402;50.004;8.246;2023-02-01T06:58:51;3.50;;;2.03;;
10701;SDS011;5402;50.004;8.246;2023-02-01T07:01:19;5.67;;;1.60;;
10701;SDS011;5402;50.004;8.246;2023-02-01T07:03:47;2.87;;;1.97;;
10701;SDS011;5402;50.004;8.246;2023-02-01T07:06:15;7.47;;;1.93;;
10701;SDS011;5402;50.004;8.246;2023-02-01T07:08:43;4.60;;;2.10;;
10701;SDS011;5402;50.004;8.246;2023-02-01T07:11:10;6.13;;;1.90;;
10701;SDS011;5402;50.004;8.246;2023-02-01T07:13:38;10.30;;;1.93;;
10701;SDS011;5402;50.004;8.246;2023-02-01T07:16:06;3.23;;;2.07;;
10701;SDS011;5402;50.004;8.246;2023-02-01T07:18:36;5.87;;;2.20;;
10701;SDS011;5402;50.004;8.246;2023-02-01T07:21:03;6.87;;;2.50;;
10701;SDS011;5402;50.004;8.246;2023-02-01T07:23:30;10.10;;;2.50;;
10701;SDS011;5402;50.004;8.246;2023-02-01T07:25:57;5.93;;;2.20;;
10701;SDS011;5402;50.004;8.246;2023-02-01T07:28:25;8.47;;;2.80;;
10701;SDS011;5402;50.004;8.246;2023-02-01T07:30:54;5.80;;;2.70;;
10701;SDS011;5402;50.004;8.246;2023-02-01T07:33:21;7.53;;;3.03;;
10701;SDS011;5402;50.004;8.246;2023-02-01T07:35:51;7.73;;;2.63;;
10701;SDS011;5402;50.004;8.246;2023-02-01T07:38:18;6.27;;;2.43;;
10701;SDS011;5402;50.004;8.246;2023-02-01T07:40:46;7.33;;;2.70;;
10701;SDS011;5402;50.004;8.246;2023-02-01T07:43:13;6.70;;;3.07;;
10701;SDS011;5402;50.004;8.246;2023-02-01T07:45:40;6.13;;;3.33;;
10701;SDS011;5402;50.004;8.246;2023-02-01T07:48:06;7.07;;;3.40;;
10701;SDS011;5402;50.004;8.246;2023-02-01T07:50:33;5.20;;;2.90;;
10701;SDS011;5402;50.004;8.246;2023-02-01T07:53:01;5.50;;;3.10;;
10701;SDS011;5402;50.004;8.246;2023-02-01T07:55:28;6.57;;;3.30;;
10701;SDS011;5402;50.004;8.246;2023-02-01T07:57:56;7.77;;;3.00;;
10701;SDS011;5402;50.004;8.246;2023-02-01T08:00:24;11.83;;;3.07;;
10701;SDS011;5402;50.004;8.246;2023-02-01T08:03:09;8.97;;;2.80;;
10701;SDS011;5402;50.004;8.246;2023-02-01T08:05:35;6.83;;;2.73;;
10701;SDS011;5402;50.004;8.246;2023-02-01T08:08:04;5.83;;;2.93;;
10701;SDS011;5402;50.004;8.246;2023-02-01T08:10:32;6.37;;;2.53;;
10701;SDS011;5402;50.004;8.246;2023-02-01T08:13:00;11.73;;;3.60;;
10701;SDS011;5402;50.004;8.246;2023-02-01T08:15:27;18.03;;;3.57;;
10701;SDS011;5402;50.004;8.246;2023-02-01T08:17:54;9.53;;;2.70;;
10701;SDS011;5402;50.004;8.246;2023-02-01T08:20:25;10.20;;;3.57;;
10701;SDS011;5402;50.004;8.246;2023-02-01T08:22:52;6.57;;;2.73;;
10701;SDS011;5402;50.004;8.246;2023-02-01T08:25:21;9.67;;;3.00;;
10701;SDS011;5402;50.004;8.246;2023-02-01T08:27:48;14.07;;;3.40;;
10701;SDS011;5402;50.004;8.246;2023-02-01T08:30:15;7.87;;;3.07;;
10701;SDS011;5402;50.004;8.246;2023-02-01T08:32:42;10.03;;;3.23;;
10701;SDS011;5402;50.004;8.246;2023-02-01T08:35:09;10.90;;;3.03;;
10701;SDS011;5402;50.004;8.246;2023-02-01T08:37:36;6.13;;;2.47;;
10701;SDS011;5402;50.004;8.246;2023-02-01T08:40:03;7.47;;;2.53;;
10701;SDS011;5402;50.004;8.246;2023-02-01T08:42:32;8.47;;;3.00;;
10701;SDS011;5402;50.004;8.246;2023-02-01T08:45:20;8.07;;;3.23;;
10701;SDS011;5402;50.004;8.246;2023-02-01T08:47:48;7.37;;;3.13;;
10701;SDS011;5402;50.004;8.246;2023-02-01T08:50:15;6.90;;;2.83;;
10701;SDS011;5402;50.004;8.246;2023-02-01T08:52:42;12.30;;;3.13;;
10701;SDS011;5402;50.004;8.246;2023-02-01T08:55:09;7.97;;;2.97;;
10701;SDS011;5402;50.004;8.246;2023-02-01T08:57:38;12.23;;;2.77;;
10701;SDS011;5402;50.004;8.246;2023-02-01T09:00:06;8.17;;;2.87;;
10701;SDS011;5402;50.004;8.246;2023-02-01T09:02:36;9.77;;;2.50;;
10701;SDS011;5402;50.004;8.246;2023-02-01T09:05:03;9.93;;;2.90;;
10701;SDS011;5402;50.004;8.246;2023-02-01T09:07:31;8.20;;;2.67;;
10701;SDS011;5402;50.004;8.246;2023-02-01T09:09:58;11.20;;;3.13;;
10701;SDS011;5402;50.004;8.246;2023-02-01T09:12:27;9.87;;;2.87;;
10701;SDS011;5402;50.004;8.246;2023-02-01T09:14:55;6.30;;;2.20;;
10701;SDS011;5402;50.004;8.246;2023-02-01T09:17:24;9.30;;;3.20;;
10701;SDS011;5402;50.004;8.246;2023-02-01T09:19:51;9.23;;;2.60;;
10701;SDS011;5402;50.004;8.246;2023-02-01T09:22:18;7.40;;;2.90;;
10701;SDS011;5402;50.004;8.246;2023-02-01T09:24:45;10.47;;;3.30;;
10701;SDS011;5402;50.004;8.246;2023-02-01T09:27:11;7.90;;;2.80;;
10701;SDS011;5402;50.004;8.246;2023-02-01T09:29:38;8.37;;;3.80;;
10701;SDS011;5402;50.004;8.246;2023-02-01T09:32:06;5.83;;;3.00;;
10701;SDS011;5402;50.004;8.246;2023-02-01T09:34:33;5.23;;;2.87;;
10701;SDS011;5402;50.004;8.246;2023-02-01T09:37:00;8.83;;;2.63;;
10701;SDS011;5402;50.004;8.246;2023-02-01T09:39:27;7.33;;;2.13;;
10701;SDS011;5402;50.004;8.246;2023-02-01T09:41:57;11.30;;;2.70;;
10701;SDS011;5402;50.004;8.246;2023-02-01T09:44:42;8.07;;;2.47;;
10701;SDS011;5402;50.004;8.246;2023-02-01T09:47:22;9.37;;;2.57;;
10701;SDS011;5402;50.004;8.246;2023-02-01T09:49:52;10.70;;;2.47;;
10701;SDS011;5402;50.004;8.246;2023-02-01T09:52:24;7.20;;;2.40;;
10701;SDS011;5402;50.004;8.246;2023-02-01T09:54:58;11.97;;;4.00;;
10701;SDS011;5402;50.004;8.246;2023-02-01T09:57:28;8.43;;;2.80;;
10701;SDS011;5402;50.004;8.246;2023-02-01T10:00:09;10.60;;;2.50;;
10701;SDS011;5402;50.004;8.246;2023-02-01T10:02:44;6.97;;;2.67;;
10701;SDS011;5402;50.004;8.246;2023-02-01T10:05:13;5.77;;;2.47;;
10701;SDS011;5402;50.004;8.246;2023-02-01T10:07:43;9.63;;;3.20;;
10701;SDS011;5402;50.004;8.246;2023-02-01T10:10:20;13.17;;;3.20;;
10701;SDS011;5402;50.004;8.246;2023-02-01T10:16:01;7.17;;;2.33;;
10701;SDS011;5402;50.004;8.246;2023-02-01T10:21:41;10.97;;;2.60;;
10701;SDS011;5402;50.004;8.246;2023-02-01T10:27:09;6.60;;;2.10;;
10701;SDS011;5402;50.004;8.246;2023-02-01T10:29:40;5.90;;;2.23;;
10701;SDS011;5402;50.004;8.246;2023-02-01T10:32:10;5.90;;;2.27;;
10701;SDS011;5402;50.004;8.246;2023-02-01T10:34:40;10.37;;;2.80;;
10701;SDS011;5402;50.004;8.246;2023-02-01T10:37:11;5.03;;;1.83;;
10701;SDS011;5402;50.004;8.246;2023-02-01T10:39:45;6.97;;;2.20;;
10701;SDS011;5402;50.004;8.246;2023-02-01T10:42:13;6.00;;;2.50;;
10701;SDS011;5402;50.004;8.246;2023-02-01T10:44:42;7.30;;;2.83;;
10701;SDS011;5402;50.004;8.246;2023-02-01T10:47:12;8.60;;;2.67;;
10701;SDS011;5402;50.004;8.246;2023-02-01T10:49:40;7.73;;;2.33;;
10701;SDS011;5402;50.004;8.246;2023-02-01T10:52:15;4.23;;;1.90;;
10701;SDS011;5402;50.004;8.246;2023-02-01T10:54:44;8.93;;;2.20;;
10701;SDS011;5402;50.004;8.246;2023-02-01T10:57:20;6.00;;;2.30;;
10701;SDS011;5402;50.004;8.246;2023-02-01T10:59:49;7.30;;;1.97;;
10701;SDS011;5402;50.004;8.246;2023-02-01T11:02:19;8.70;;;2.30;;
10701;SDS011;5402;50.004;8.246;2023-02-01T11:04:58;9.83;;;2.43;;
10701;SDS011;5402;50.004;8.246;2023-02-01T11:07:27;7.83;;;2.17;;
10701;SDS011;5402;50.004;8.246;2023-02-01T11:09:55;6.73;;;1.90;;
10701;SDS011;5402;50.004;8.246;2023-02-01T11:12:29;8.77;;;1.67;;
10701;SDS011;5402;50.004;8.246;2023-02-01T11:14:58;10.40;;;2.90;;
10701;SDS011;5402;50.004;8.246;2023-02-01T11:17:32;5.30;;;2.00;;
10701;SDS011;5402;50.004;8.246;2023-02-01T11:20:02;7.37;;;2.20;;
10701;SDS011;5402;50.004;8.246;2023-02-01T11:22:31;6.73;;;2.30;;
10701;SDS011;5402;50.004;8.246;2023-02-01T11:24:58;6.90;;;2.10;;
10701;SDS011;5402;50.004;8.246;2023-02-01T11:27:27;5.47;;;1.90;;
10701;SDS011;5402;50.004;8.246;2023-02-01T11:29:55;5.70;;;2.13;;
10701;SDS011;5402;50.004;8.246;2023-02-01T11:32:26;9.47;;;2.27;;
10701;SDS011;5402;50.004;8.246;2023-02-01T11:34:56;5.80;;;1.77;;
10701;SDS011;5402;50.004;8.246;2023-02-01T11:37:27;9.00;;;2.20;;
10701;SDS011;5402;50.004;8.246;2023-02-01T11:39:58;10.20;;;1.93;;
10701;SDS011;5402;50.004;8.246;2023-02-01T11:42:27;6.60;;;1.93;;
10701;SDS011;5402;50.004;8.246;2023-02-01T11:45:09;12.13;;;2.40;;
10701;SDS011;5402;50.004;8.246;2023-02-01T11:47:44;12.00;;;2.23;;
10701;SDS011;5402;50.004;8.246;2023-02-01T11:50:13;6.10;;;1.97;;
10701;SDS011;5402;50.004;8.246;2023-02-01T11:52:49;8.07;;;2.67;;
10701;SDS011;5402;50.004;8.246;2023-02-01T11:55:49;8.07;;;2.20;;
10701;SDS011;5402;50.004;8.246;2023-02-01T12:01:24;7.97;;;2.53;;
10701;SDS011;5402;50.004;8.246;2023-02-01T12:07:12;9.93;;;2.40;;
10701;SDS011;5402;50.004;8.246;2023-02-01T12:09:52;6.27;;;1.90;;
10701;SDS011;5402;50.004;8.246;2023-02-01T12:12:34;7.10;;;2.20;;
10701;SDS011;5402;50.004;8.246;2023-02-01T12:18:03;7.93;;;2.10;;
10701;SDS011;5402;50.004;8.246;2023-02-01T12:21:02;11.00;;;2.23;;
10701;SDS011;5402;50.004;8.246;2023-02-01T12:23:36;5.47;;;2.10;;
10701;SDS011;5402;50.004;8.246;2023-02-01T12:26:33;9.10;;;2.13;;
10701;SDS011;5402;50.004;8.246;2023-02-01T12:32:09;6.00;;;2.00;;
10701;SDS011;5402;50.004;8.246;2023-02-01T12:34:54;8.37;;;2.20;;
10701;SDS011;5402;50.004;8.246;2023-02-01T12:37:45;9.77;;;2.37;;
10701;SDS011;5402;50.004;8.246;2023-02-01T12:40:24;6.53;;;2.13;;
10701;SDS011;5402;50.004;8.246;2023-02-01T12:42:58;8.37;;;2.60;;
10701;SDS011;5402;50.004;8.246;2023-02-01T12:45:30;6.03;;;1.80;;
10701;SDS011;5402;50.004;8.246;2023-02-01T12:48:00;6.90;;;2.47;;
10701;SDS011;5402;50.004;8.246;2023-02-01T12:50:35;6.10;;;2.20;;
10701;SDS011;5402;50.004;8.246;2023-02-01T12:53:12;5.60;;;2.20;;
10701;SDS011;5402;50.004;8.246;2023-02-01T12:55:47;6.00;;;1.83;;
10701;SDS011;5402;50.004;8.246;2023-02-01T12:58:19;7.63;;;2.10;;
10701;SDS011;5402;50.004;8.246;2023-02-01T13:00:51;6.63;;;2.10;;
10701;SDS011;5402;50.004;8.246;2023-02-01T13:03:27;6.70;;;1.87;;
10701;SDS011;5402;50.004;8.246;2023-02-01T13:06:00;4.23;;;2.07;;
10701;SDS011;5402;50.004;8.246;2023-02-01T13:08:35;6.33;;;2.03;;
10701;SDS011;5402;50.004;8.246;2023-02-01T13:11:09;6.77;;;1.80;;
10701;SDS011;5402;50.004;8.246;2023-02-01T13:13:42;6.10;;;2.20;;
10701;SDS011;5402;50.004;8.246;2023-02-01T13:16:16;13.20;;;2.57;;
10701;SDS011;5402;50.004;8.246;2023-02-01T13:18:50;5.97;;;2.03;;
10701;SDS011;5402;50.004;8.246;2023-02-01T13:21:20;4.57;;;1.87;;
10701;SDS011;5402;50.004;8.246;2023-02-01T13:23:50;6.77;;;1.90;;
10701;SDS011;5402;50.004;8.246;2023-02-01T13:26:20;6.97;;;1.83;;
10701;SDS011;5402;50.004;8.246;2023-02-01T13:28:47;10.23;;;2.03;;
10701;SDS011;5402;50.004;8.246;2023-02-01T13:31:20;5.80;;;2.00;;
10701;SDS011;5402;50.004;8.246;2023-02-01T13:34:27;4.87;;;1.70;;
10701;SDS011;5402;50.004;8.246;2023-02-01T13:37:14;7.30;;;1.67;;
10701;SDS011;5402;50.004;8.246;2023-02-01T13:39:55;6.77;;;2.10;;
10701;SDS011;5402;50.004;8.246;2023-02-01T13:42:37;6.90;;;2.30;;
10701;SDS011;5402;50.004;8.246;2023-02-01T13:45:14;9.87;;;2.90;;
10701;SDS011;5402;50.004;8.246;2023-02-01T13:47:45;7.67;;;1.70;;
10701;SDS011;5402;50.004;8.246;2023-02-01T13:50:19;6.77;;;2.10;;
10701;SDS011;5402;50.004;8.246;2023-02-01T13:52:53;4.67;;;1.80;;
10701;SDS011;5402;50.004;8.246;2023-02-01T13:55:29;10.87;;;2.33;;
10701;SDS011;5402;50.004;8.246;2023-02-01T13:58:13;8.13;;;1.80;;
10701;SDS011;5402;50.004;8.246;2023-02-01T14:00:43;5.30;;;1.90;;
10701;SDS011;5402;50.004;8.246;2023-02-01T14:03:18;4.40;;;1.77;;
10701;SDS011;5402;50.004;8.246;2023-02-01T14:09:14;8.67;;;2.30;;
10701;SDS011;5402;50.004;8.246;2023-02-01T14:11:47;5.40;;;1.63;;
10701;SDS011;5402;50.004;8.246;2023-02-01T14:23:21;5.90;;;1.67;;
10701;SDS011;5402;50.004;8.246;2023-02-01T14:26:04;7.00;;;1.87;;
10701;SDS011;5402;50.004;8.246;2023-02-01T14:28:35;6.00;;;1.83;;
10701;SDS011;5402;50.004;8.246;2023-02-01T14:31:13;4.40;;;1.53;;
10701;SDS011;5402;50.004;8.246;2023-02-01T14:33:44;11.30;;;1.90;;
10701;SDS011;5402;50.004;8.246;2023-02-01T14:36:12;2.03;;;1.40;;
10701;SDS011;5402;50.004;8.246;2023-02-01T14:38:47;3.87;;;1.50;;
10701;SDS011;5402;50.004;8.246;2023-02-01T14:41:26;8.03;;;1.70;;
10701;SDS011;5402;50.004;8.246;2023-02-01T14:44:13;6.20;;;2.13;;
10701;SDS011;5402;50.004;8.246;2023-02-01T14:47:03;3.87;;;1.77;;
10701;SDS011;5402;50.004;8.246;2023-02-01T14:49:53;6.70;;;1.77;;
10701;SDS011;5402;50.004;8.246;2023-02-01T14:52:23;4.60;;;1.60;;
10701;SDS011;5402;50.004;8.246;2023-02-01T14:55:00;7.67;;;1.80;;
10701;SDS011;5402;50.004;8.246;2023-02-01T14:57:31;7.27;;;1.57;;
10701;SDS011;5402;50.004;8.246;2023-02-01T15:00:06;5.37;;;1.83;;
10701;SDS011;5402;50.004;8.246;2023-02-01T15:02:40;5.90;;;2.13;;
10701;SDS011;5402;50.004;8.246;2023-02-01T15:05:19;6.30;;;2.03;;
10701;SDS011;5402;50.004;8.246;2023-02-01T15:07:51;9.10;;;2.00;;
10701;SDS011;5402;50.004;8.246;2023-02-01T15:10:20;6.33;;;1.50;;
10701;SDS011;5402;50.004;8.246;2023-02-01T15:12:48;7.63;;;1.53;;
10701;SDS011;5402;50.004;8.246;2023-02-01T15:15:17;8.43;;;1.73;;
10701;SDS011;5402;50.004;8.246;2023-02-01T15:17:49;5.20;;;2.27;;
10701;SDS011;5402;50.004;8.246;2023-02-01T15:20:18;5.83;;;2.23;;
10701;SDS011;5402;50.004;8.246;2023-02-01T15:22:55;7.53;;;2.00;;
10701;SDS011;5402;50.004;8.246;2023-02-01T15:25:27;6.30;;;1.60;;
10701;SDS011;5402;50.004;8.246;2023-02-01T15:27:55;5.63;;;1.73;;
10701;SDS011;5402;50.004;8.246;2023-02-01T15:30:24;7.37;;;2.17;;
10701;SDS011;5402;50.004;8.246;2023-02-01T15:33:03;9.23;;;1.90;;
10701;SDS011;5402;50.004;8.246;2023-02-01T15:35:33;4.27;;;1.70;;
10701;SDS011;5402;50.004;8.246;2023-02-01T15:38:18;4.50;;;1.43;;
10701;SDS011;5402;50.004;8.246;2023-02-01T15:41:00;7.30;;;1.70;;
10701;SDS011;5402;50.004;8.246;2023-02-01T15:43:30;4.37;;;1.87;;
10701;SDS011;5402;50.004;8.246;2023-02-01T15:45:58;6.63;;;1.80;;
10701;SDS011;5402;50.004;8.246;2023-02-01T15:48:34;5.37;;;2.00;;
10701;SDS011;5402;50.004;8.246;2023-02-01T15:51:04;4.83;;;1.90;;
10701;SDS011;5402;50.004;8.246;2023-02-01T15:53:31;5.93;;;1.80;;
10701;SDS011;5402;50.004;8.246;2023-02-01T15:56:00;6.90;;;2.27;;
10701;SDS011;5402;50.004;8.246;2023-02-01T15:58:29;7.40;;;1.43;;
10701;SDS011;5402;50.004;8.246;2023-02-01T16:00:58;5.93;;;1.40;;
10701;SDS011;5402;50.004;8.246;2023-02-01T16:03:34;7.47;;;1.83;;
10701;SDS011;5402;50.004;8.246;2023-02-01T16:06:03;3.70;;;1.63;;